sensor_id;sensor_type;location;lat;lon;timestamp;pressure;altitude;pressure_sealevel;temperature;humidity
60852;BME280;48553;50.766;2.900;2023-04-29T00:01:09;100977.00;;;12.35;81.80
60852;BME280;48553;50.766;2.900;2023-04-29T00:04:10;100981.22;;;12.32;81.89
60852;BME280;48553;50.766;2.900;2023-04-29T00:07:10;100985.25;;;12.35;81.80
60852;BME280;48553;50.766;2.900;2023-04-29T00:10:14;100984.31;;;12.30;81.82
60852;BME280;48553;50.766;2.900;2023-04-29T00:13:15;100987.06;;;12.30;81.81
60852;BME280;48553;50.766;2.900;2023-04-29T00:16:16;100989.72;;;12.27;81.76
60852;BME280;48553;50.766;2.900;2023-04-29T00:19:16;100982.59;;;12.26;81.76
60852;BME280;48553;50.766;2.900;2023-04-29T00:22:17;100980.53;;;12.23;81.59
60852;BME280;48553;50.766;2.900;2023-04-29T00:25:18;100984.22;;;12.27;81.43
60852;BME280;48553;50.766;2.900;2023-04-29T00:28:19;100981.78;;;12.25;81.65
60852;BME280;48553;50.766;2.900;2023-04-29T00:31:20;100998.19;;;12.22;81.52
60852;BME280;48553;50.766;2.900;2023-04-29T00:34:21;100992.69;;;12.22;81.62
60852;BME280;48553;50.766;2.900;2023-04-29T00:37:21;100996.22;;;12.22;81.54
60852;BME280;48553;50.766;2.900;2023-04-29T00:40:22;100995.75;;;12.20;81.66
60852;BME280;48553;50.766;2.900;2023-04-29T00:43:22;100997.72;;;12.20;81.38
60852;BME280;48553;50.766;2.900;2023-04-29T00:46:23;100993.66;;;12.17;81.38
60852;BME280;48553;50.766;2.900;2023-04-29T00:49:23;100995.63;;;12.17;81.53
60852;BME280;48553;50.766;2.900;2023-04-29T00:52:25;100988.19;;;12.17;81.43
60852;BME280;48553;50.766;2.900;2023-04-29T00:55:30;100995.53;;;12.13;81.27
60852;BME280;48553;50.766;2.900;2023-04-29T00:58:32;101000.19;;;12.12;81.19
60852;BME280;48553;50.766;2.900;2023-04-29T01:01:35;100997.81;;;12.11;81.15
60852;BME280;48553;50.766;2.900;2023-04-29T01:04:35;100995.38;;;12.09;80.94
60852;BME280;48553;50.766;2.900;2023-04-29T01:07:44;101000.41;;;12.07;81.03
60852;BME280;48553;50.766;2.900;2023-04-29T01:10:53;101000.41;;;12.07;80.86
60852;BME280;48553;50.766;2.900;2023-04-29T01:13:58;101006.94;;;12.03;80.80
60852;BME280;48553;50.766;2.900;2023-04-29T01:17:09;100998.69;;;12.03;80.67
60852;BME280;48553;50.766;2.900;2023-04-29T01:20:11;101006.13;;;12.02;80.66
60852;BME280;48553;50.766;2.900;2023-04-29T01:23:11;101006.47;;;12.01;80.61
60852;BME280;48553;50.766;2.900;2023-04-29T01:26:11;101008.41;;;12.00;80.53
60852;BME280;48553;50.766;2.900;2023-04-29T01:39:39;101007.22;;;11.89;80.39
60852;BME280;48553;50.766;2.900;2023-04-29T01:46:15;101019.66;;;11.86;80.43
60852;BME280;48553;50.766;2.900;2023-04-29T01:49:24;101012.59;;;11.85;80.33
60852;BME280;48553;50.766;2.900;2023-04-29T01:52:25;101017.25;;;11.85;80.28
60852;BME280;48553;50.766;2.900;2023-04-29T01:55:25;101015.19;;;11.82;80.32
60852;BME280;48553;50.766;2.900;2023-04-29T01:58:26;101015.03;;;11.78;80.54
60852;BME280;48553;50.766;2.900;2023-04-29T02:01:27;101014.72;;;11.80;80.77
60852;BME280;48553;50.766;2.900;2023-04-29T02:04:27;101023.97;;;11.75;80.47
60852;BME280;48553;50.766;2.900;2023-04-29T02:07:28;101018.16;;;11.77;80.43
60852;BME280;48553;50.766;2.900;2023-04-29T02:10:28;101011.03;;;11.76;80.64
60852;BME280;48553;50.766;2.900;2023-04-29T02:13:28;101016.53;;;11.76;80.43
60852;BME280;48553;50.766;2.900;2023-04-29T02:16:29;101012.19;;;11.75;80.56
60852;BME280;48553;50.766;2.900;2023-04-29T02:19:29;101015.25;;;11.73;80.47
60852;BME280;48553;50.766;2.900;2023-04-29T02:22:30;101020.44;;;11.75;80.29
60852;BME280;48553;50.766;2.900;2023-04-29T02:25:30;101021.09;;;11.71;80.55
60852;BME280;48553;50.766;2.900;2023-04-29T02:28:31;101029.31;;;11.71;80.61
60852;BME280;48553;50.766;2.900;2023-04-29T02:31:31;101020.19;;;11.67;80.63
60852;BME280;48553;50.766;2.900;2023-04-29T02:34:32;101013.84;;;11.67;80.80
60852;BME280;48553;50.766;2.900;2023-04-29T02:37:33;101018.88;;;11.65;80.70
60852;BME280;48553;50.766;2.900;2023-04-29T02:40:34;101018.56;;;11.66;80.49
60852;BME280;48553;50.766;2.900;2023-04-29T02:43:34;101028.25;;;11.64;80.80
60852;BME280;48553;50.766;2.900;2023-04-29T02:46:35;101026.69;;;11.63;80.63
60852;BME280;48553;50.766;2.900;2023-04-29T02:49:36;101028.25;;;11.64;80.51
60852;BME280;48553;50.766;2.900;2023-04-29T02:52:36;101028.94;;;11.61;80.71
60852;BME280;48553;50.766;2.900;2023-04-29T02:55:37;101034.09;;;11.62;80.50
60852;BME280;48553;50.766;2.900;2023-04-29T02:58:37;101039.47;;;11.59;80.58
60852;BME280;48553;50.766;2.900;2023-04-29T03:01:37;101046.44;;;11.56;80.42
60852;BME280;48553;50.766;2.900;2023-04-29T03:04:38;101038.66;;;11.58;80.72
60852;BME280;48553;50.766;2.900;2023-04-29T03:07:39;101040.59;;;11.58;80.52
60852;BME280;48553;50.766;2.900;2023-04-29T03:10:39;101047.56;;;11.55;80.69
60852;BME280;48553;50.766;2.900;2023-04-29T03:13:40;101051.78;;;11.53;80.62
60852;BME280;48553;50.766;2.900;2023-04-29T03:16:40;101058.41;;;11.52;80.67
60852;BME280;48553;50.766;2.900;2023-04-29T03:19:41;101065.50;;;11.53;80.46
60852;BME280;48553;50.766;2.900;2023-04-29T03:22:42;101062.28;;;11.50;80.40
60852;BME280;48553;50.766;2.900;2023-04-29T03:25:42;101075.53;;;11.48;80.34
60852;BME280;48553;50.766;2.900;2023-04-29T03:28:43;101071.66;;;11.49;80.26
60852;BME280;48553;50.766;2.900;2023-04-29T03:31:43;101074.72;;;11.48;80.24
60852;BME280;48553;50.766;2.900;2023-04-29T03:34:44;101084.13;;;11.47;80.37
60852;BME280;48553;50.766;2.900;2023-04-29T03:37:44;101081.38;;;11.47;80.39
60852;BME280;48553;50.766;2.900;2023-04-29T03:40:44;101079.75;;;11.46;80.26
60852;BME280;48553;50.766;2.900;2023-04-29T03:43:45;101084.44;;;11.45;80.23
60852;BME280;48553;50.766;2.900;2023-04-29T03:46:45;101082.03;;;11.44;80.35
60852;BME280;48553;50.766;2.900;2023-04-29T03:49:46;101082.69;;;11.41;80.35
60852;BME280;48553;50.766;2.900;2023-04-29T03:52:46;101084.75;;;11.44;80.44
60852;BME280;48553;50.766;2.900;2023-04-29T03:55:47;101088.97;;;11.41;80.41
60852;BME280;48553;50.766;2.900;2023-04-29T03:58:47;101086.25;;;11.41;80.24
60852;BME280;48553;50.766;2.900;2023-04-29T04:04:51;101098.22;;;11.37;80.76
60852;BME280;48553;50.766;2.900;2023-04-29T04:07:51;101100.47;;;11.35;80.77
60852;BME280;48553;50.766;2.900;2023-04-29T04:10:52;101097.75;;;11.35;80.68
60852;BME280;48553;50.766;2.900;2023-04-29T04:13:52;101097.75;;;11.35;80.69
60852;BME280;48553;50.766;2.900;2023-04-29T04:16:53;101098.22;;;11.37;80.50
60852;BME280;48553;50.766;2.900;2023-04-29T04:19:54;101093.88;;;11.36;80.87
60852;BME280;48553;50.766;2.900;2023-04-29T04:22:54;101097.75;;;11.35;80.71
60852;BME280;48553;50.766;2.900;2023-04-29T04:25:54;101099.22;;;11.32;80.63
60852;BME280;48553;50.766;2.900;2023-04-29T04:28:55;101096.78;;;11.31;80.66
60852;BME280;48553;50.766;2.900;2023-04-29T04:31:56;101100.81;;;11.33;80.51
60852;BME280;48553;50.766;2.900;2023-04-29T04:34:56;101112.59;;;11.34;80.45
60852;BME280;48553;50.766;2.900;2023-04-29T04:37:57;101113.25;;;11.31;80.63
60852;BME280;48553;50.766;2.900;2023-04-29T04:40:58;101113.94;;;11.27;80.74
60852;BME280;48553;50.766;2.900;2023-04-29T04:43:59;101125.38;;;11.29;80.65
60852;BME280;48553;50.766;2.900;2023-04-29T04:46:59;101129.59;;;11.27;80.65
60852;BME280;48553;50.766;2.900;2023-04-29T04:50:00;101131.38;;;11.23;80.69
60852;BME280;48553;50.766;2.900;2023-04-29T04:53:01;101130.59;;;11.22;80.64
60852;BME280;48553;50.766;2.900;2023-04-29T04:56:02;101133.47;;;11.26;80.38
60852;BME280;48553;50.766;2.900;2023-04-29T04:59:03;101148.66;;;11.23;80.50
60852;BME280;48553;50.766;2.900;2023-04-29T05:02:04;101145.09;;;11.23;80.44
60852;BME280;48553;50.766;2.900;2023-04-29T05:05:04;101145.41;;;11.21;80.58
60852;BME280;48553;50.766;2.900;2023-04-29T05:08:05;101150.13;;;11.21;80.48
60852;BME280;48553;50.766;2.900;2023-04-29T05:11:05;101149.31;;;11.20;80.34
60852;BME280;48553;50.766;2.900;2023-04-29T05:14:06;101162.88;;;11.17;80.61
60852;BME280;48553;50.766;2.900;2023-04-29T05:17:06;101164.50;;;11.18;80.52
60852;BME280;48553;50.766;2.900;2023-04-29T05:20:09;101166.44;;;11.17;80.41
60852;BME280;48553;50.766;2.900;2023-04-29T05:23:09;101170.00;;;11.18;80.43
60852;BME280;48553;50.766;2.900;2023-04-29T05:26:10;101171.44;;;11.15;80.43
60852;BME280;48553;50.766;2.900;2023-04-29T05:29:10;101169.50;;;11.16;80.52
60852;BME280;48553;50.766;2.900;2023-04-29T05:32:11;101177.56;;;11.12;80.45
60852;BME280;48553;50.766;2.900;2023-04-29T05:35:12;101176.94;;;11.15;80.47
60852;BME280;48553;50.766;2.900;2023-04-29T05:38:13;101184.34;;;11.15;80.55
60852;BME280;48553;50.766;2.900;2023-04-29T05:41:13;101193.41;;;11.15;80.48
60852;BME280;48553;50.766;2.900;2023-04-29T05:44:14;101176.59;;;11.17;80.42
60852;BME280;48553;50.766;2.900;2023-04-29T05:47:14;101195.31;;;11.15;80.50
60852;BME280;48553;50.766;2.900;2023-04-29T05:50:15;101201.16;;;11.13;80.56
60852;BME280;48553;50.766;2.900;2023-04-29T05:53:15;101204.69;;;11.14;80.56
60852;BME280;48553;50.766;2.900;2023-04-29T05:56:16;101206.16;;;11.11;80.52
60852;BME280;48553;50.766;2.900;2023-04-29T05:59:18;101220.34;;;11.13;80.47
60852;BME280;48553;50.766;2.900;2023-04-29T06:02:18;101223.41;;;11.12;80.77
60852;BME280;48553;50.766;2.900;2023-04-29T06:05:18;101224.22;;;11.12;80.58
60852;BME280;48553;50.766;2.900;2023-04-29T06:08:19;101223.09;;;11.13;80.50
60852;BME280;48553;50.766;2.900;2023-04-29T06:11:19;101223.41;;;11.12;80.58
60852;BME280;48553;50.766;2.900;2023-04-29T06:14:20;101234.06;;;11.13;80.58
60852;BME280;48553;50.766;2.900;2023-04-29T06:17:20;101226.63;;;11.14;80.60
60852;BME280;48553;50.766;2.900;2023-04-29T06:20:21;101233.59;;;11.11;80.68
60852;BME280;48553;50.766;2.900;2023-04-29T06:23:21;101241.94;;;11.15;80.67
60852;BME280;48553;50.766;2.900;2023-04-29T06:26:22;101238.41;;;11.14;80.60
60852;BME280;48553;50.766;2.900;2023-04-29T06:29:22;101247.44;;;11.15;80.61
60852;BME280;48553;50.766;2.900;2023-04-29T06:32:23;101244.22;;;11.13;80.90
60852;BME280;48553;50.766;2.900;2023-04-29T06:35:23;101241.16;;;11.14;80.68
60852;BME280;48553;50.766;2.900;2023-04-29T06:38:24;101251.66;;;11.12;80.80
60852;BME280;48553;50.766;2.900;2023-04-29T06:41:24;101255.19;;;11.13;80.57
60852;BME280;48553;50.766;2.900;2023-04-29T06:44:25;101264.72;;;11.15;80.38
60852;BME280;48553;50.766;2.900;2023-04-29T06:47:26;101263.41;;;11.13;80.32
60852;BME280;48553;50.766;2.900;2023-04-29T06:50:27;101265.84;;;11.14;80.41
60852;BME280;48553;50.766;2.900;2023-04-29T06:53:27;101268.09;;;11.12;80.40
60852;BME280;48553;50.766;2.900;2023-04-29T06:56:28;101272.13;;;11.15;80.25
60852;BME280;48553;50.766;2.900;2023-04-29T06:59:28;101277.97;;;11.13;80.24
60852;BME280;48553;50.766;2.900;2023-04-29T07:02:29;101280.34;;;11.15;80.36
60852;BME280;48553;50.766;2.900;2023-04-29T07:05:29;101281.19;;;11.15;80.19
60852;BME280;48553;50.766;2.900;2023-04-29T07:08:30;101289.41;;;11.15;80.16
60852;BME280;48553;50.766;2.900;2023-04-29T07:11:31;101290.84;;;11.13;80.17
60852;BME280;48553;50.766;2.900;2023-04-29T07:14:31;101292.78;;;11.12;79.78
60852;BME280;48553;50.766;2.900;2023-04-29T07:17:32;101298.28;;;11.12;79.83
60852;BME280;48553;50.766;2.900;2023-04-29T07:20:35;101307.66;;;11.11;79.90
60852;BME280;48553;50.766;2.900;2023-04-29T07:23:36;101301.81;;;11.13;79.96
60852;BME280;48553;50.766;2.900;2023-04-29T07:26:36;101310.06;;;11.13;79.75
60852;BME280;48553;50.766;2.900;2023-04-29T07:29:36;101310.22;;;11.16;79.76
60852;BME280;48553;50.766;2.900;2023-04-29T07:32:37;101320.09;;;11.17;79.61
60852;BME280;48553;50.766;2.900;2023-04-29T07:35:38;101325.88;;;11.16;79.84
60852;BME280;48553;50.766;2.900;2023-04-29T07:38:40;101325.56;;;11.17;79.74
60852;BME280;48553;50.766;2.900;2023-04-29T07:41:41;101312.31;;;11.19;79.67
60852;BME280;48553;50.766;2.900;2023-04-29T07:44:42;101319.72;;;11.19;79.65
60852;BME280;48553;50.766;2.900;2023-04-29T07:47:44;101327.47;;;11.17;79.74
60852;BME280;48553;50.766;2.900;2023-04-29T07:50:45;101324.41;;;11.18;79.64
60852;BME280;48553;50.766;2.900;2023-04-29T07:53:45;101326.50;;;11.21;79.62
60852;BME280;48553;50.766;2.900;2023-04-29T07:56:46;101330.72;;;11.19;79.67
60852;BME280;48553;50.766;2.900;2023-04-29T07:59:51;101332.47;;;11.23;79.51
60852;BME280;48553;50.766;2.900;2023-04-29T08:02:52;101336.38;;;11.22;79.71
60852;BME280;48553;50.766;2.900;2023-04-29T08:05:52;101339.59;;;11.24;79.67
60852;BME280;48553;50.766;2.900;2023-04-29T08:08:55;101337.66;;;11.25;79.67
60852;BME280;48553;50.766;2.900;2023-04-29T08:11:55;101339.59;;;11.24;79.70
60852;BME280;48553;50.766;2.900;2023-04-29T08:14:56;101341.19;;;11.25;79.68
60852;BME280;48553;50.766;2.900;2023-04-29T08:17:56;101341.66;;;11.27;79.56
60852;BME280;48553;50.766;2.900;2023-04-29T08:20:57;101351.50;;;11.28;79.38
60852;BME280;48553;50.766;2.900;2023-04-29T08:23:57;101352.34;;;11.29;79.38
60852;BME280;48553;50.766;2.900;2023-04-29T08:26:58;101356.34;;;11.32;79.49
60852;BME280;48553;50.766;2.900;2023-04-29T08:29:58;101350.06;;;11.31;79.54
60852;BME280;48553;50.766;2.900;2023-04-29T08:32:58;101353.75;;;11.35;79.56
60852;BME280;48553;50.766;2.900;2023-04-29T08:35:59;101353.75;;;11.35;79.66
60852;BME280;48553;50.766;2.900;2023-04-29T08:39:03;101356.97;;;11.37;79.32
60852;BME280;48553;50.766;2.900;2023-04-29T08:42:09;101357.31;;;11.36;79.27
60852;BME280;48553;50.766;2.900;2023-04-29T08:45:12;101371.19;;;11.39;79.36
60852;BME280;48553;50.766;2.900;2023-04-29T08:48:12;101368.44;;;11.39;79.53
60852;BME280;48553;50.766;2.900;2023-04-29T08:51:13;101373.94;;;11.39;79.58
60852;BME280;48553;50.766;2.900;2023-04-29T08:54:14;101377.16;;;11.41;79.51
60852;BME280;48553;50.766;2.900;2023-04-29T08:57:14;101381.19;;;11.44;79.50
60852;BME280;48553;50.766;2.900;2023-04-29T09:00:16;101385.88;;;11.43;79.67
60852;BME280;48553;50.766;2.900;2023-04-29T09:03:46;101383.94;;;11.44;79.60
60852;BME280;48553;50.766;2.900;2023-04-29T09:06:50;101391.84;;;11.45;79.55
60852;BME280;48553;50.766;2.900;2023-04-29T09:09:52;101387.63;;;11.48;79.52
60852;BME280;48553;50.766;2.900;2023-04-29T09:12:56;101392.81;;;11.49;79.57
60852;BME280;48553;50.766;2.900;2023-04-29T09:16:00;101392.47;;;11.51;79.46
60852;BME280;48553;50.766;2.900;2023-04-29T09:19:00;101391.84;;;11.54;79.53
60852;BME280;48553;50.766;2.900;2023-04-29T09:22:03;101393.78;;;11.54;79.51
60852;BME280;48553;50.766;2.900;2023-04-29T09:25:13;101392.47;;;11.51;79.90
60852;BME280;48553;50.766;2.900;2023-04-29T09:28:14;101395.69;;;11.53;79.55
60852;BME280;48553;50.766;2.900;2023-04-29T09:31:26;101402.16;;;11.57;79.44
60852;BME280;48553;50.766;2.900;2023-04-29T09:34:36;101400.22;;;11.58;79.69
60852;BME280;48553;50.766;2.900;2023-04-29T09:37:38;101397.94;;;11.60;79.47
60852;BME280;48553;50.766;2.900;2023-04-29T09:40:42;101410.22;;;11.62;79.46
60852;BME280;48553;50.766;2.900;2023-04-29T09:43:43;101399.22;;;11.62;79.45
60852;BME280;48553;50.766;2.900;2023-04-29T09:50:11;101408.13;;;11.68;79.56
60852;BME280;48553;50.766;2.900;2023-04-29T09:53:27;101407.31;;;11.67;79.69
60852;BME280;48553;50.766;2.900;2023-04-29T09:56:47;101401.81;;;11.67;79.60
60852;BME280;48553;50.766;2.900;2023-04-29T09:59:48;101403.59;;;11.72;79.27
60852;BME280;48553;50.766;2.900;2023-04-29T10:02:49;101409.38;;;11.79;79.17
60852;BME280;48553;50.766;2.900;2023-04-29T10:05:50;101413.06;;;11.92;78.82
60852;BME280;48553;50.766;2.900;2023-04-29T10:08:51;101402.72;;;11.98;78.98
60852;BME280;48553;50.766;2.900;2023-04-29T10:11:53;101403.47;;;12.07;78.67
60852;BME280;48553;50.766;2.900;2023-04-29T10:15:02;101408.47;;;12.14;78.73
60852;BME280;48553;50.766;2.900;2023-04-29T10:18:25;101411.97;;;12.23;78.34
60852;BME280;48553;50.766;2.900;2023-04-29T10:21:30;101415.34;;;12.28;78.64
60852;BME280;48553;50.766;2.900;2023-04-29T10:24:31;101415.50;;;12.32;78.23
60852;BME280;48553;50.766;2.900;2023-04-29T10:27:35;101413.38;;;12.38;78.08
60852;BME280;48553;50.766;2.900;2023-04-29T10:30:37;101419.94;;;12.45;77.84
60852;BME280;48553;50.766;2.900;2023-04-29T10:33:41;101411.81;;;12.49;77.68
60852;BME280;48553;50.766;2.900;2023-04-29T10:36:44;101423.31;;;12.51;77.85
60852;BME280;48553;50.766;2.900;2023-04-29T10:40:03;101423.47;;;12.54;77.84
60852;BME280;48553;50.766;2.900;2023-04-29T10:43:04;101420.50;;;12.60;77.37
60852;BME280;48553;50.766;2.900;2023-04-29T10:46:22;101422.63;;;12.63;77.40
60852;BME280;48553;50.766;2.900;2023-04-29T10:49:23;101420.47;;;12.68;77.15
60852;BME280;48553;50.766;2.900;2023-04-29T10:52:23;101417.97;;;12.75;77.07
60852;BME280;48553;50.766;2.900;2023-04-29T10:55:24;101424.22;;;12.85;76.90
60852;BME280;48553;50.766;2.900;2023-04-29T11:01:48;101429.47;;;12.99;77.11
60852;BME280;48553;50.766;2.900;2023-04-29T11:05:09;101435.84;;;13.11;76.94
60852;BME280;48553;50.766;2.900;2023-04-29T11:08:13;101420.06;;;13.21;77.13
60852;BME280;48553;50.766;2.900;2023-04-29T11:11:22;101422.88;;;13.33;77.66
60852;BME280;48553;50.766;2.900;2023-04-29T11:14:28;101417.31;;;13.42;76.26
60852;BME280;48553;50.766;2.900;2023-04-29T11:17:36;101416.91;;;13.52;76.77
60852;BME280;48553;50.766;2.900;2023-04-29T11:24:07;101415.44;;;13.67;76.16
60852;BME280;48553;50.766;2.900;2023-04-29T11:27:07;101417.31;;;13.75;76.20
60852;BME280;48553;50.766;2.900;2023-04-29T11:30:08;101417.31;;;13.87;75.77
60852;BME280;48553;50.766;2.900;2023-04-29T11:33:09;101413.81;;;13.99;75.60
60852;BME280;48553;50.766;2.900;2023-04-29T11:36:12;101417.13;;;14.05;75.54
60852;BME280;48553;50.766;2.900;2023-04-29T11:39:15;101418.06;;;14.09;74.72
60852;BME280;48553;50.766;2.900;2023-04-29T11:42:22;101412.44;;;14.17;74.81
60852;BME280;48553;50.766;2.900;2023-04-29T11:45:23;101409.78;;;14.21;75.22
60852;BME280;48553;50.766;2.900;2023-04-29T11:48:25;101414.47;;;14.33;74.32
60852;BME280;48553;50.766;2.900;2023-04-29T11:51:25;101417.94;;;14.30;74.01
60852;BME280;48553;50.766;2.900;2023-04-29T11:54:28;101420.13;;;14.36;74.28
60852;BME280;48553;50.766;2.900;2023-04-29T11:57:29;101424.28;;;14.43;73.92
60852;BME280;48553;50.766;2.900;2023-04-29T12:00:29;101416.00;;;14.55;73.88
60852;BME280;48553;50.766;2.900;2023-04-29T12:03:31;101419.91;;;14.54;74.23
60852;BME280;48553;50.766;2.900;2023-04-29T12:06:32;101414.63;;;14.61;73.55
60852;BME280;48553;50.766;2.900;2023-04-29T12:09:43;101408.31;;;14.60;72.80
60852;BME280;48553;50.766;2.900;2023-04-29T12:12:44;101417.13;;;14.66;73.31
60852;BME280;48553;50.766;2.900;2023-04-29T12:15:47;101410.81;;;14.66;73.33
60852;BME280;48553;50.766;2.900;2023-04-29T12:18:49;101399.88;;;14.81;72.69
60852;BME280;48553;50.766;2.900;2023-04-29T12:21:50;101403.63;;;14.89;73.24
60852;BME280;48553;50.766;2.900;2023-04-29T12:24:51;101408.47;;;14.92;73.13
60852;BME280;48553;50.766;2.900;2023-04-29T12:27:58;101407.97;;;15.02;73.03
60852;BME280;48553;50.766;2.900;2023-04-29T12:30:59;101410.03;;;15.06;72.38
60852;BME280;48553;50.766;2.900;2023-04-29T12:34:02;101408.28;;;15.13;72.02
60852;BME280;48553;50.766;2.900;2023-04-29T12:37:04;101415.53;;;15.18;72.47
60852;BME280;48553;50.766;2.900;2023-04-29T12:40:05;101409.72;;;15.35;72.47
60852;BME280;48553;50.766;2.900;2023-04-29T12:43:07;101407.81;;;15.39;72.18
60852;BME280;48553;50.766;2.900;2023-04-29T12:46:09;101413.66;;;15.50;72.07
60852;BME280;48553;50.766;2.900;2023-04-29T12:49:10;101418.41;;;15.65;71.63
60852;BME280;48553;50.766;2.900;2023-04-29T12:52:10;101408.38;;;15.73;71.68
60852;BME280;48553;50.766;2.900;2023-04-29T12:55:11;101415.69;;;15.81;71.59
60852;BME280;48553;50.766;2.900;2023-04-29T12:58:12;101420.09;;;15.70;71.71
60852;BME280;48553;50.766;2.900;2023-04-29T13:01:12;101425.31;;;15.72;71.88
60852;BME280;48553;50.766;2.900;2023-04-29T13:04:13;101421.97;;;15.66;71.32
60852;BME280;48553;50.766;2.900;2023-04-29T13:07:13;101427.41;;;15.62;70.69
60852;BME280;48553;50.766;2.900;2023-04-29T13:10:14;101423.59;;;15.67;69.98
60852;BME280;48553;50.766;2.900;2023-04-29T13:13:15;101426.13;;;15.60;71.20
60852;BME280;48553;50.766;2.900;2023-04-29T13:16:16;101431.66;;;15.60;70.36
60852;BME280;48553;50.766;2.900;2023-04-29T13:19:17;101424.28;;;15.64;70.34
60852;BME280;48553;50.766;2.900;2023-04-29T13:22:17;101416.91;;;15.68;69.96
60852;BME280;48553;50.766;2.900;2023-04-29T13:25:18;101430.72;;;15.68;70.66
60852;BME280;48553;50.766;2.900;2023-04-29T13:28:18;101420.38;;;15.65;70.49
60852;BME280;48553;50.766;2.900;2023-04-29T13:31:19;101420.00;;;15.66;70.43
60852;BME280;48553;50.766;2.900;2023-04-29T13:34:20;101421.19;;;15.65;69.93
60852;BME280;48553;50.766;2.900;2023-04-29T13:37:20;101416.22;;;15.71;68.98
60852;BME280;48553;50.766;2.900;2023-04-29T13:40:21;101426.47;;;15.71;69.78
60852;BME280;48553;50.766;2.900;2023-04-29T13:43:21;101423.69;;;15.71;69.11
60852;BME280;48553;50.766;2.900;2023-04-29T13:46:22;101421.94;;;15.78;69.57
60852;BME280;48553;50.766;2.900;2023-04-29T13:49:22;101418.53;;;15.85;69.93
60852;BME280;48553;50.766;2.900;2023-04-29T13:52:23;101423.28;;;15.84;70.04
60852;BME280;48553;50.766;2.900;2023-04-29T13:55:23;101420.88;;;15.83;70.17
60852;BME280;48553;50.766;2.900;2023-04-29T13:58:24;101426.03;;;15.84;70.40
60852;BME280;48553;50.766;2.900;2023-04-29T14:01:24;101432.00;;;15.86;70.04
60852;BME280;48553;50.766;2.900;2023-04-29T14:04:26;101430.41;;;15.85;69.19
60852;BME280;48553;50.766;2.900;2023-04-29T14:07:26;101422.81;;;15.82;69.48
60852;BME280;48553;50.766;2.900;2023-04-29T14:10:27;101418.47;;;15.81;67.72
60852;BME280;48553;50.766;2.900;2023-04-29T14:13:27;101428.34;;;15.82;68.14
60852;BME280;48553;50.766;2.900;2023-04-29T14:16:29;101433.53;;;15.84;68.48
60852;BME280;48553;50.766;2.900;2023-04-29T14:19:29;101426.03;;;15.84;68.07
60852;BME280;48553;50.766;2.900;2023-04-29T14:22:30;101426.03;;;15.84;69.04
60852;BME280;48553;50.766;2.900;2023-04-29T14:25:30;101414.28;;;15.88;69.14
60852;BME280;48553;50.766;2.900;2023-04-29T14:28:31;101418.66;;;15.89;68.51
60852;BME280;48553;50.766;2.900;2023-04-29T14:31:34;101430.50;;;15.89;68.67
60852;BME280;48553;50.766;2.900;2023-04-29T14:34:37;101419.09;;;15.91;69.09
60852;BME280;48553;50.766;2.900;2023-04-29T14:37:38;101422.31;;;15.93;68.76
60852;BME280;48553;50.766;2.900;2023-04-29T14:40:38;101424.00;;;15.97;68.91
60852;BME280;48553;50.766;2.900;2023-04-29T14:43:39;101420.16;;;16.02;69.29
60852;BME280;48553;50.766;2.900;2023-04-29T14:46:41;101417.41;;;16.02;69.36
60852;BME280;48553;50.766;2.900;2023-04-29T14:49:42;101413.47;;;16.03;68.69
60852;BME280;48553;50.766;2.900;2023-04-29T14:52:43;101415.25;;;16.11;69.21
60852;BME280;48553;50.766;2.900;2023-04-29T14:55:43;101413.41;;;16.15;69.23
60852;BME280;48553;50.766;2.900;2023-04-29T14:58:44;101421.31;;;16.17;68.89
60852;BME280;48553;50.766;2.900;2023-04-29T15:01:44;101413.41;;;16.15;68.85
60852;BME280;48553;50.766;2.900;2023-04-29T15:04:45;101419.72;;;16.16;68.50
60852;BME280;48553;50.766;2.900;2023-04-29T15:07:46;101414.97;;;16.16;68.90
60852;BME280;48553;50.766;2.900;2023-04-29T15:10:46;101423.28;;;16.16;67.51
60852;BME280;48553;50.766;2.900;2023-04-29T15:13:47;101420.78;;;16.11;69.94
60852;BME280;48553;50.766;2.900;2023-04-29T15:16:47;101429.81;;;16.08;68.24
60852;BME280;48553;50.766;2.900;2023-04-29T15:19:48;101425.16;;;16.12;68.87
60852;BME280;48553;50.766;2.900;2023-04-29T15:22:48;101427.22;;;16.15;68.75
60852;BME280;48553;50.766;2.900;2023-04-29T15:25:49;101418.47;;;16.13;69.39
60852;BME280;48553;50.766;2.900;2023-04-29T15:28:49;101419.28;;;16.14;69.08
60852;BME280;48553;50.766;2.900;2023-04-29T15:31:50;101425.59;;;16.14;69.45
60852;BME280;48553;50.766;2.900;2023-04-29T15:34:51;101422.31;;;16.08;69.70
60852;BME280;48553;50.766;2.900;2023-04-29T15:37:51;101421.75;;;16.03;70.38
60852;BME280;48553;50.766;2.900;2023-04-29T15:40:52;101430.31;;;15.98;69.73
60852;BME280;48553;50.766;2.900;2023-04-29T15:43:58;101420.44;;;15.97;70.04
60852;BME280;48553;50.766;2.900;2023-04-29T15:46:58;101424.00;;;15.97;69.96
60852;BME280;48553;50.766;2.900;2023-04-29T15:49:59;101420.00;;;15.95;69.69
60852;BME280;48553;50.766;2.900;2023-04-29T15:53:00;101417.13;;;15.91;69.97
60852;BME280;48553;50.766;2.900;2023-04-29T15:56:00;101413.22;;;15.92;70.40
60852;BME280;48553;50.766;2.900;2023-04-29T15:59:01;101416.44;;;15.94;70.46
60852;BME280;48553;50.766;2.900;2023-04-29T16:02:01;101413.22;;;15.92;70.49
60852;BME280;48553;50.766;2.900;2023-04-29T16:05:02;101416.78;;;15.93;70.39
60852;BME280;48553;50.766;2.900;2023-04-29T16:08:04;101424.34;;;15.96;70.64
60852;BME280;48553;50.766;2.900;2023-04-29T16:11:04;101427.91;;;15.96;70.59
60852;BME280;48553;50.766;2.900;2023-04-29T16:14:05;101425.97;;;15.97;70.62
60852;BME280;48553;50.766;2.900;2023-04-29T16:17:05;101418.38;;;15.94;70.87